• Join FlightAware (Why Join?)
  • Login
  • US Flag 
12:11PM EDT


 

Airport Tracker/Info


-or-


 

Live Flight TrackerFlight Track Log ✈ VH-PIE ✈ 22-Jun-2013 ✈ YSBK / BWU - YSBK / BWU

Flight Track Log - Related Links

Times and Time Zones

All times are in EDT time to prevent confusion due to time zone crossing. See the VH-PIE flight status page for this flight to view local times or setup timezone preferences in your user account.

Time Position Orientation Groundspeed Altitude Reporting Facility
EDT Latitude Longitude Course Direction KTS MPH feet Rate Location/Type
12:48AM -33.9313 151.0052 349° North 91 105 700  Level Aus ATC (RADAR)
12:49AM -33.9095 151.0001 349° North 104 120 1,700 960 Climbing Aus ATC (RADAR)
12:50AM -33.9014 150.9830 300° West 96 110 2,300 840 Climbing Aus ATC (RADAR)
12:50AM -33.8889 150.9588 302° West 100 115 2,900 420 Climbing Aus ATC (RADAR)
12:51AM -33.8715 150.9260 302° West 131 151 3,100  Climbing Aus ATC (RADAR)
12:52AM -33.8549 150.8860 297° West 139 160 3,000 120 Descending Aus ATC (RADAR)
12:53AM -33.8607 150.8642 252° West 122 140 3,300 600 Climbing Aus ATC (RADAR)
12:54AM -33.8886 150.8661 177° South 105 121 3,900 360 Climbing Aus ATC (RADAR)
12:55AM -33.9145 150.8649 182° South 117 135 4,000 120 Climbing Aus ATC (RADAR)
12:55AM -33.9442 150.8593 189° South 132 152 4,100  Climbing Aus ATC (RADAR)
12:56AM -33.9661 150.8557 188° South 136 157 4,000 -120 Descending Aus ATC (RADAR)
12:57AM -33.9976 150.8514 186° South 136 157 4,000 60 Level Aus ATC (RADAR)
12:57AM -34.0162 150.8495 185° South 133 153 4,100  Climbing Aus ATC (RADAR)
12:58AM -34.0592 150.8416 189° South 135 155 4,000 -60 Descending Aus ATC (RADAR)
12:59AM -34.0809 150.8399 184° South 134 154 4,000 60 Level Aus ATC (RADAR)
01:00AM -34.1203 150.8344 187° South 132 152 4,100  Climbing Aus ATC (RADAR)
01:01AM -34.1568 150.8308 185° South 131 151 4,100  Level Aus ATC (RADAR)
01:02AM -34.1845 150.8288 183° South 134 154 4,100 60 Level Aus ATC (RADAR)
01:02AM -34.2047 150.8232 193° South 128 147 4,200  Climbing Aus ATC (RADAR)
01:03AM -34.2319 150.8074 206° Southwest 128 147 4,100 -180 Descending Aus ATC (RADAR)
01:04AM -34.2506 150.7966 206° Southwest 128 147 4,000 -120 Descending Aus ATC (RADAR)
01:05AM -34.2789 150.7812 204° Southwest 120 138 4,000  Level Aus ATC (RADAR)
01:06AM -34.3046 150.7673 204° Southwest 119 137 4,000  Level Aus ATC (RADAR)
01:07AM -34.3146 150.7376 248° West 115 132 4,000  Level Aus ATC (RADAR)
01:07AM -34.2990 150.7216 320° Northwest 123 142 4,000  Level Aus ATC (RADAR)
01:08AM -34.2728 150.7159 350° North 125 144 4,000  Level Aus ATC (RADAR)
01:09AM -34.2645 150.7399 67° East 103 119 4,000  Level Aus ATC (RADAR)
01:10AM -34.2819 150.7597 137° Southeast 97 112 4,000  Level Aus ATC (RADAR)
01:10AM -34.3047 150.7635 172° South 98 113 4,000  Level Aus ATC (RADAR)
01:11AM -34.3186 150.7433 230° Southwest 116 133 4,000  Level Aus ATC (RADAR)
01:12AM -34.3011 150.7311 330° Northwest 122 140 4,000  Level Aus ATC (RADAR)
01:13AM -34.2690 150.7271 354° North 111 128 4,000 -180 Level Aus ATC (RADAR)
01:14AM -34.2653 150.7427 74° East 94 108 3,800 -120 Descending Aus ATC (RADAR)
01:14AM -34.2826 150.7583 143° Southeast 101 116 3,900  Climbing Aus ATC (RADAR)
01:15AM -34.2998 150.7634 166° South 109 125 3,800 -120 Descending Aus ATC (RADAR)
01:16AM -34.3328 150.7640 179° South 113 130 3,700 -240 Descending Aus ATC (RADAR)
01:17AM -34.3556 150.7642 180° South 96 110 3,400 -180 Descending Aus ATC (RADAR)
01:18AM -34.3727 150.7668 173° South 94 108 3,500 60 Climbing Aus ATC (RADAR)
01:18AM -34.3990 150.7698 175° South 120 138 3,500 -420 Level Aus ATC (RADAR)
01:19AM -34.4195 150.7720 175° South 112 129 2,900 -660 Descending Aus ATC (RADAR)
01:20AM -34.4356 150.7748 172° South 100 115 2,700 -360 Descending Aus ATC (RADAR)
01:21AM -34.4638 150.7764 177° South 104 120 2,400 -480 Descending Aus ATC (RADAR)
01:21AM -34.4863 150.7783 176° South 95 109 1,900 60 Descending Aus ATC (RADAR)
01:24AM -34.4942 150.7787 150° Southeast 4,000 180 Climbing Aus ATC (Calculated)
01:25AM -34.4942 150.7787 150° Southeast 4,000 -300 Level Aus ATC (Calculated)
01:28AM -34.5359 150.8081 176° South 130 150 3,100 -60 Descending Aus ATC (RADAR)
01:28AM -34.5099 150.7969 341° North 130 150 3,800 900 Climbing Aus ATC (RADAR)
01:29AM -34.4860 150.7905 347° North 131 151 4,400 300 Climbing Aus ATC (RADAR)
01:30AM -34.4620 150.7846 349° North 147 169 4,200 -360 Descending Aus ATC (RADAR)
01:31AM -34.4175 150.7647 340° North 159 183 3,800 -120 Descending Aus ATC (RADAR)
01:31AM -34.3846 150.7533 344° North 148 170 4,000 120 Climbing Aus ATC (RADAR)
01:32AM -34.3570 150.7430 343° North 155 178 4,000 60 Level Aus ATC (RADAR)
01:33AM -34.3333 150.7363 347° North 149 171 4,100 60 Climbing Aus ATC (RADAR)
01:34AM -34.2877 150.7312 355° North 155 178 4,100 -60 Level Aus ATC (RADAR)
01:35AM -34.2545 150.7273 354° North 158 182 4,000 -120 Descending Aus ATC (RADAR)
01:36AM -34.2070 150.7299 North 158 182 3,900 -180 Descending Aus ATC (RADAR)
01:36AM -34.1821 150.7249 350° North 156 180 3,700  Descending Aus ATC (RADAR)
01:37AM -34.1460 150.7129 345° North 145 167 3,900 60 Climbing Aus ATC (RADAR)
01:38AM -34.1225 150.7070 348° North 147 169 3,800 -120 Descending Aus ATC (RADAR)
01:38AM -34.0920 150.7023 353° North 147 169 3,800 60 Level Aus ATC (RADAR)
01:39AM -34.0691 150.6986 352° North 142 163 3,900  Climbing Aus ATC (RADAR)
01:40AM -34.0367 150.6951 355° North 138 159 3,800 -240 Descending Aus ATC (RADAR)
01:41AM -34.0069 150.7151 29° Northeast 130 150 3,500 -480 Descending Aus ATC (RADAR)
01:41AM -33.9911 150.7281 34° Northeast 119 137 3,100 -660 Descending Aus ATC (RADAR)
01:42AM -33.9681 150.7502 39° Northeast 114 131 2,600 -420 Descending Aus ATC (RADAR)
01:43AM -33.9522 150.7642 36° Northeast 121 139 2,500  Descending Aus ATC (RADAR)
01:44AM -33.9273 150.7840 33° Northeast 117 135 2,600  Climbing Aus ATC (RADAR)
01:45AM -33.9049 150.8024 34° Northeast 116 133 2,500 -60 Descending Aus ATC (RADAR)
01:46AM -33.8616 150.8404 36° Northeast 107 123 2,500 -60 Level Aus ATC (RADAR)
01:47AM -33.8643 150.8620 99° East 102 117 2,400 -420 Descending Aus ATC (RADAR)
01:48AM -33.8727 150.8792 121° Southeast 102 117 2,000 -540 Descending Aus ATC (RADAR)
01:48AM -33.8827 150.9049 115° Southeast 99 114 1,700 -540 Descending Aus ATC (RADAR)
01:49AM -33.8883 150.9191 116° Southeast 92 106 1,300 -600 Descending Aus ATC (RADAR)
01:50AM -33.9041 150.9557 117° Southeast 91 105 700 -540 Descending Aus ATC (RADAR)
01:51AM -33.9122 150.9697 125° Southeast 85 98 300 -720 Descending Aus ATC (RADAR)